Time;durP1;ratioP1;P1;durP2;ratioP2;P2;SDS_P1;SDS_P2;PMS_P1;PMS_P2;Temp;Humidity;BMP_temperature;BMP_pressure;BME280_temperature;BME280_humidity;BME280_pressure;Samples;Min_cycle;Max_cycle;Signal;HPM_P1;HPM_P2
2022/04/24 00:05:56;;;;;;;52.00;33.90;;;;;;;1.76;68.80;98642.36;444610;1268;142859;-65
2022/04/24 00:16:02;;;;;;;46.80;32.30;;;;;;;1.58;68.94;98638.27;436941;1267;141658;-64
2022/04/24 00:26:09;;;;;;;59.00;37.40;;;;;;;1.43;69.30;98633.39;447980;1267;142518;-66
2022/04/24 00:36:15;;;;;;;50.60;35.20;;;;;;;1.32;69.78;98626.77;445741;1267;143371;-65
2022/04/24 00:46:40;;;;;;;42.30;30.80;;;;;;;1.22;69.85;98623.02;432040;1268;142563;-66
2022/04/24 00:56:47;;;;;;;49.40;32.40;;;;;;;1.19;70.95;98610.55;447833;1266;141486;-63
2022/04/24 01:06:52;;;;;;;50.90;31.80;;;;;;;1.09;70.57;98608.89;447021;1266;141991;-64
2022/04/24 01:16:59;;;;;;;49.70;34.30;;;;;;;1.00;70.64;98612.02;448019;1267;142035;-64
2022/04/24 01:27:05;;;;;;;49.10;33.60;;;;;;;0.89;70.48;98607.13;447969;1266;141656;-65
2022/04/24 01:37:11;;;;;;;53.00;32.00;;;;;;;0.74;70.71;98597.88;447153;1266;142161;-65
2022/04/24 01:47:17;;;;;;;43.40;29.80;;;;;;;0.64;70.92;98591.20;448027;1266;143929;-65
2022/04/24 01:57:23;;;;;;;48.00;32.90;;;;;;;0.53;71.26;98591.13;444533;1265;141866;-65
2022/04/24 02:07:29;;;;;;;53.20;35.90;;;;;;;0.47;72.14;98602.20;447291;1266;143128;-65
2022/04/24 02:17:35;;;;;;;47.30;32.80;;;;;;;0.43;72.32;98601.15;448017;1266;143975;-65
2022/04/24 02:27:40;;;;;;;49.60;33.10;;;;;;;0.29;72.43;98597.01;448102;1267;141872;-66
2022/04/24 02:37:46;;;;;;;52.80;34.40;;;;;;;0.18;72.51;98597.94;448034;1266;142124;-65
2022/04/24 02:47:52;;;;;;;45.80;32.50;;;;;;;0.12;72.81;98596.60;448009;1267;142573;-65
2022/04/24 02:57:58;;;;;;;45.30;31.20;;;;;;;0.05;72.27;98585.70;444415;1267;142391;-64
2022/04/24 03:08:04;;;;;;;47.00;30.70;;;;;;;-0.03;72.50;98583.75;448057;1266;142406;-64
2022/04/24 03:18:10;;;;;;;45.90;33.30;;;;;;;-0.11;72.74;98570.44;448062;1267;142613;-65
2022/04/24 03:28:15;;;;;;;47.60;32.40;;;;;;;-0.19;72.66;98560.05;447297;1267;142179;-64
2022/04/24 03:38:21;;;;;;;45.80;30.50;;;;;;;-0.17;72.73;98560.50;448059;1267;143174;-65
2022/04/24 03:48:27;;;;;;;43.60;30.70;;;;;;;-0.06;72.65;98552.55;448043;1267;142748;-65
2022/04/24 03:58:33;;;;;;;45.20;31.70;;;;;;;0.09;72.60;98545.95;447263;1267;142861;-65
2022/04/24 04:08:39;;;;;;;44.60;30.40;;;;;;;0.30;72.59;98549.13;447988;1267;142822;-65
2022/04/24 04:18:45;;;;;;;45.10;35.90;;;;;;;0.65;72.78;98541.91;447095;1268;183448;-64
2022/04/24 04:28:51;;;;;;;50.80;35.30;;;;;;;1.07;72.95;98541.56;447997;1268;142139;-65
2022/04/24 04:38:57;;;;;;;53.80;39.50;;;;;;;1.60;72.81;98546.07;445459;1266;142898;-64
2022/04/24 04:49:03;;;;;;;48.80;34.80;;;;;;;2.15;72.52;98537.77;446057;1266;145004;-65
2022/04/24 04:59:10;;;;;;;49.60;37.40;;;;;;;2.76;72.15;98529.00;447339;1267;145615;-65
2022/04/24 05:09:16;;;;;;;41.00;34.70;;;;;;;5.39;72.82;98528.74;447940;1268;143604;-65
2022/04/24 05:19:22;;;;;;;35.30;27.30;;;;;;;15.82;64.49;98511.71;447037;1268;142825;-67
2022/04/24 05:29:27;;;;;;;17.60;14.40;;;;;;;23.60;52.80;98498.28;448074;1266;143947;-66
2022/04/24 05:39:34;;;;;;;6.20;5.60;;;;;;;28.77;42.24;98492.13;448066;1267;141581;-66
2022/04/24 05:49:39;;;;;;;6.00;5.20;;;;;;;32.06;35.10;98493.72;447103;1267;140401;-67
2022/04/24 05:59:45;;;;;;;9.10;4.40;;;;;;;34.71;30.03;98505.22;448025;1268;142268;-62
2022/04/24 06:09:51;;;;;;;7.40;5.00;;;;;;;37.13;26.75;98516.05;447132;1268;141313;-63
2022/04/24 06:19:57;;;;;;;5.20;4.80;;;;;;;39.32;23.99;98518.23;434336;1268;142003;-61
2022/04/24 06:30:03;;;;;;;4.40;4.00;;;;;;;41.12;21.34;98523.18;439724;1268;140883;-61
2022/04/24 06:40:11;;;;;;;5.00;3.90;;;;;;;40.48;19.87;98523.36;447341;1268;184055;-62
2022/04/24 06:50:17;;;;;;;4.40;4.00;;;;;;;39.12;18.73;98506.30;448105;1268;143246;-61
2022/04/24 07:00:24;;;;;;;4.40;4.10;;;;;;;40.28;18.63;98502.81;447821;1269;141488;-61
2022/04/24 07:10:30;;;;;;;4.70;4.30;;;;;;;42.68;17.42;98500.58;447322;1268;142140;-62
2022/04/24 07:20:38;;;;;;;5.00;4.50;;;;;;;44.56;16.28;98507.63;448119;1268;141722;-62
2022/04/24 07:30:44;;;;;;;5.30;4.70;;;;;;;44.79;15.30;98486.23;447928;1267;141197;-62
2022/04/24 07:40:50;;;;;;;5.90;5.50;;;;;;;46.48;14.38;98473.22;447713;1268;199392;-62
2022/04/24 07:50:56;;;;;;;5.60;5.10;;;;;;;45.56;13.38;98458.95;447740;1269;141189;-61
2022/04/24 08:01:01;;;;;;;4.40;4.10;;;;;;;43.55;13.59;98444.55;440797;1268;142409;-60
2022/04/24 08:11:07;;;;;;;2.30;2.20;;;;;;;41.18;14.11;98441.45;448105;1266;142356;-61
2022/04/24 08:21:13;;;;;;;1.90;1.80;;;;;;;37.70;14.83;98426.45;447900;1268;141285;-61
2022/04/24 08:31:19;;;;;;;1.40;1.30;;;;;;;27.79;18.87;98429.27;447133;1268;141700;-62
2022/04/24 08:41:27;;;;;;;2.20;2.10;;;;;;;22.29;23.57;98443.73;448002;1268;142061;-62
2022/04/24 08:51:34;;;;;;;3.60;1.90;;;;;;;20.53;26.67;98437.78;438043;1268;141947;-61
2022/04/24 09:01:44;;;;;;;;;;;;;;;19.21;28.52;98440.98;447360;1266;142226;-61
2022/04/24 09:11:50;;;;;;;3.00;2.80;;;;;;;17.89;30.96;98460.30;435683;1268;127495;-59
2022/04/24 09:22:06;;;;;;;1.80;1.70;;;;;;;17.06;32.58;98477.43;430790;1268;141493;-60
2022/04/24 09:32:13;;;;;;;1.50;1.30;;;;;;;16.74;33.51;98478.66;448103;1267;141129;-61
2022/04/24 09:42:21;;;;;;;1.60;1.50;;;;;;;16.66;34.10;98473.85;448097;1266;140953;-61
2022/04/24 09:52:28;;;;;;;2.60;2.30;;;;;;;17.04;34.38;98469.81;433316;1268;142333;-62
2022/04/24 10:02:34;;;;;;;1.90;1.70;;;;;;;17.57;34.23;98473.77;448107;1267;141457;-62
2022/04/24 10:12:43;;;;;;;2.70;2.10;;;;;;;17.58;34.12;98468.70;447718;1269;140521;-62
2022/04/24 10:22:53;;;;;;;2.90;2.70;;;;;;;17.44;34.35;98458.57;448075;1267;142296;-61
2022/04/24 10:33:18;;;;;;;2.90;2.50;;;;;;;16.84;34.83;98425.64;448095;1265;141610;-62
2022/04/24 10:43:25;;;;;;;3.20;2.20;;;;;;;16.39;35.90;98421.04;434621;1268;140728;-59
2022/04/24 10:53:50;;;;;;;6.00;2.70;;;;;;;16.06;36.40;98406.84;438830;1267;142045;-59
2022/04/24 11:04:07;;;;;;;3.50;2.30;;;;;;;15.91;37.02;98388.30;445639;1266;141722;-62
2022/04/24 11:14:12;;;;;;;4.80;2.70;;;;;;;16.05;37.02;98371.72;448103;1267;142927;-61
2022/04/24 11:24:21;;;;;;;3.90;2.60;;;;;;;15.87;37.05;98361.22;447770;1269;141392;-61
2022/04/24 11:34:25;;;;;;;;;;;;;;;15.82;37.48;98344.60;447388;1267;140986;-61
2022/04/24 11:55:00;;;;;;;2.90;2.10;;;;;;;16.41;36.97;98320.91;447123;1267;223114;-62
2022/04/24 12:05:10;;;;;;;3.40;2.00;;;;;;;16.63;35.96;98317.50;448106;1267;142110;-62
2022/04/24 12:15:17;;;;;;;2.60;2.20;;;;;;;16.84;35.79;98313.34;447940;1268;142245;-62
2022/04/24 12:25:23;;;;;;;3.00;2.30;;;;;;;16.76;36.13;98309.55;447305;1267;141889;-59
2022/04/24 12:35:48;;;;;;;1.80;1.70;;;;;;;16.53;36.67;98300.67;448014;1266;143146;-65
2022/04/24 12:45:55;;;;;;;2.20;1.60;;;;;;;16.50;36.78;98283.55;447173;1266;142233;-58
2022/04/24 12:56:02;;;;;;;1.90;1.70;;;;;;;16.34;37.23;98281.55;445050;1268;142832;-59
2022/04/24 13:06:09;;;;;;;3.80;2.10;;;;;;;16.44;36.85;98278.00;440250;1267;141087;-57
2022/04/24 13:26:38;;;;;;;27.10;19.50;;;;;;;16.75;36.16;98265.07;443939;1267;141409;-58
2022/04/24 13:36:44;;;;;;;3.00;2.10;;;;;;;16.90;35.92;98258.27;446116;1267;141940;-59
2022/04/24 13:46:52;;;;;;;3.20;1.70;;;;;;;16.98;36.17;98242.38;442805;1267;210313;-57
2022/04/24 13:56:59;;;;;;;2.30;2.10;;;;;;;16.76;36.16;98248.60;446889;1267;141162;-56
2022/04/24 14:07:06;;;;;;;3.00;2.10;;;;;;;16.25;36.86;98248.59;445321;1267;141671;-58
2022/04/24 14:17:12;;;;;;;2.50;2.30;;;;;;;16.02;37.17;98243.15;447975;1267;141152;-57
2022/04/24 14:27:18;;;;;;;3.00;2.80;;;;;;;15.91;37.66;98240.77;447802;1268;141989;-58
2022/04/24 14:37:23;;;;;;;2.60;2.40;;;;;;;15.76;37.89;98230.42;442476;1266;181243;-56
2022/04/24 14:57:53;;;;;;;3.50;2.10;;;;;;;15.00;39.57;98220.91;446963;1268;141818;-58
2022/04/24 15:08:04;;;;;;;2.50;2.30;;;;;;;14.63;40.90;98208.84;447746;1267;141509;-58
2022/04/24 15:18:10;;;;;;;2.80;2.60;;;;;;;14.29;43.12;98203.45;447940;1266;141756;-57
2022/04/24 15:28:16;;;;;;;6.70;3.70;;;;;;;14.02;45.14;98197.91;447277;1267;143024;-59
2022/04/24 15:38:22;;;;;;;4.10;3.50;;;;;;;13.72;46.41;98186.77;447950;1267;141583;-57
2022/04/24 15:48:34;;;;;;;6.50;5.70;;;;;;;13.40;47.88;98180.20;448060;1267;141220;-58
2022/04/24 15:58:41;;;;;;;4.70;4.20;;;;;;;13.15;49.46;98168.95;445584;1267;141725;-61
2022/04/24 16:08:46;;;;;;;5.40;4.90;;;;;;;12.91;50.33;98169.64;439846;1267;140508;-62
2022/04/24 16:18:52;;;;;;;5.50;4.90;;;;;;;12.67;51.82;98166.95;438128;1267;140584;-60
2022/04/24 16:28:58;;;;;;;6.10;5.50;;;;;;;12.55;52.13;98145.97;433651;1268;140648;-58
2022/04/24 16:39:04;;;;;;;5.70;4.60;;;;;;;12.40;52.04;98144.75;445307;1268;141228;-57
2022/04/24 16:49:09;;;;;;;5.00;4.50;;;;;;;12.31;51.98;98146.00;437974;1267;141852;-57
2022/04/24 16:59:15;;;;;;;5.30;4.90;;;;;;;12.24;52.25;98143.13;431692;1268;141391;-58
2022/04/24 17:09:21;;;;;;;5.70;5.20;;;;;;;12.04;53.15;98148.96;431455;1270;141526;-57
2022/04/24 17:19:28;;;;;;;7.50;5.60;;;;;;;11.79;54.06;98147.96;431888;1267;141167;-62
2022/04/24 17:29:34;;;;;;;5.40;4.90;;;;;;;11.61;54.36;98147.60;447773;1269;141691;-59
2022/04/24 17:39:41;;;;;;;6.80;5.40;;;;;;;11.50;55.02;98155.45;444093;1266;140654;-59
2022/04/24 17:49:47;;;;;;;6.60;5.90;;;;;;;11.38;56.00;98169.09;447693;1268;142094;-59
2022/04/24 17:59:53;;;;;;;15.20;10.10;;;;;;;11.25;56.89;98178.72;442267;1267;141680;-58
2022/04/24 18:09:59;;;;;;;16.10;10.70;;;;;;;11.15;57.94;98184.33;442641;1268;141823;-58
2022/04/24 18:20:08;;;;;;;11.40;9.30;;;;;;;10.92;59.39;98168.25;442656;1268;145957;-57
2022/04/24 18:30:15;;;;;;;12.30;10.20;;;;;;;10.58;61.04;98156.35;435377;1268;142385;-59
2022/04/24 18:40:21;;;;;;;8.50;7.60;;;;;;;10.15;62.33;98183.27;439733;1267;142519;-57
2022/04/24 18:50:29;;;;;;;7.50;6.60;;;;;;;9.93;63.20;98186.98;433408;1268;141186;-58
2022/04/24 19:00:35;;;;;;;8.50;7.00;;;;;;;9.74;63.90;98193.45;438185;1268;142032;-59
2022/04/24 19:21:06;;;;;;;7.20;6.50;;;;;;;9.56;65.07;98229.85;445761;1269;141818;-59
2022/04/24 19:31:12;;;;;;;7.40;6.70;;;;;;;9.55;65.62;98238.16;447238;1267;141462;-60
2022/04/24 19:41:19;;;;;;;9.70;7.70;;;;;;;9.47;66.17;98234.80;434663;1268;141529;-60
2022/04/24 19:51:25;;;;;;;7.80;6.80;;;;;;;9.31;66.85;98219.43;431330;1268;141705;-59
2022/04/24 20:01:31;;;;;;;7.20;6.50;;;;;;;9.15;67.44;98224.92;430477;1268;142817;-58
2022/04/24 20:11:40;;;;;;;7.50;6.20;;;;;;;8.97;67.86;98206.20;447825;1267;142560;-60
2022/04/24 20:21:46;;;;;;;7.80;6.60;;;;;;;8.87;68.63;98204.63;446925;1267;162117;-60
2022/04/24 20:31:52;;;;;;;5.60;5.10;;;;;;;8.85;68.86;98192.88;447631;1267;141770;-58
2022/04/24 20:41:58;;;;;;;6.00;5.50;;;;;;;8.79;69.41;98176.83;447765;1267;144166;-59
2022/04/24 20:52:05;;;;;;;6.20;5.70;;;;;;;8.68;69.89;98169.30;446980;1268;142116;-60
2022/04/24 21:02:14;;;;;;;6.70;6.00;;;;;;;8.56;70.29;98174.40;448013;1267;142640;-59
2022/04/24 21:12:20;;;;;;;6.10;5.50;;;;;;;8.49;70.77;98182.89;447915;1268;143302;-65
2022/04/24 21:22:26;;;;;;;6.00;5.40;;;;;;;8.39;71.20;98185.05;447246;1267;143203;-66
2022/04/24 21:32:32;;;;;;;7.30;6.10;;;;;;;8.35;71.47;98184.83;447776;1267;141760;-69
2022/04/24 21:42:38;;;;;;;6.80;6.00;;;;;;;8.38;71.61;98181.47;444761;1268;142097;-63
2022/04/24 21:52:44;;;;;;;6.60;5.80;;;;;;;8.38;71.58;98177.96;442988;1267;141194;-62
2022/04/24 22:13:13;;;;;;;6.10;5.40;;;;;;;8.36;72.34;98191.21;446976;1269;141594;-64
2022/04/24 22:33:57;;;;;;;6.70;6.10;;;;;;;8.35;72.49;98189.20;435078;1269;141426;-61
2022/04/24 22:44:03;;;;;;;7.30;6.60;;;;;;;8.31;72.56;98192.71;447897;1267;145235;-59
2022/04/24 22:54:10;;;;;;;5.80;5.30;;;;;;;8.24;72.54;98189.03;447929;1268;141580;-58
2022/04/24 23:04:16;;;;;;;8.30;6.70;;;;;;;8.23;72.57;98181.58;447174;1268;144897;-60
2022/04/24 23:14:22;;;;;;;6.80;6.20;;;;;;;8.26;72.61;98181.15;447798;1268;141988;-61
2022/04/24 23:24:30;;;;;;;6.60;5.90;;;;;;;8.26;72.53;98182.94;447801;1268;141516;-61
2022/04/24 23:34:37;;;;;;;;;;;;;;;8.17;72.70;98190.78;447338;1267;142123;-61
2022/04/24 23:44:44;;;;;;;6.30;5.70;;;;;;;8.08;72.94;98183.07;448212;1267;130663;-58
2022/04/24 23:54:50;;;;;;;7.50;6.80;;;;;;;8.02;73.20;98185.60;442519;1266;351941;-61
